Sunday, July 22, 2018, 10:24 AM EDT
Back to Local

KJFK, Kennedy International Airport

Location: Rosedale, NY, United States Lat: 40.633
Local Time: 10:24 AM EDT (14:24 GMT) Lon: -73.767
Time Zone: US/Eastern Elev: 13 ft

Show me the last for .
Show Decoded

2018-07-22 09:51 METAR KJFK 221351Z 17020KT 10SM FEW009 BKN019 23/21 A2992 RMK AO2 PK WND
                 18027/1315 RAE1252 SLP132 P0000 T02280211 $ =
2018-07-22 08:51 METAR KJFK 221251Z 17016KT 10SM -RA FEW009 BKN018 OVC024 22/22 A2989 RMK AO2 PK
                 WND 18026/1230 RAB36 SLP122 P0000 T02220222 $ =
2018-07-22 07:51 METAR KJFK 221151Z 16014KT 10SM FEW009 BKN019 OVC025 22/22 A2987 RMK AO2 SLP116
                 60019 70080 T02220222 10228 20222 53022 =
2018-07-22 06:51 METAR KJFK 221051Z 16014KT 8SM FEW009 BKN016 OVC027 22/22 A2985 RMK AO2
                 RAB0955E10B30E46 SLP106 P0001 T02220222 =
2018-07-22 06:24 METAR KJFK 221024Z 14013KT 6SM BR FEW008 BKN018 OVC023 22/22 A2983 RMK AO2
                 RAB0955E10 P0001 T02220222 =
2018-07-22 05:51 METAR KJFK 220951Z 14014KT 6SM BR SCT012 BKN025 OVC030 23/23 A2982 RMK AO2 RAE01
                 SLP097 P0000 T02280228 =
2018-07-22 04:51 METAR KJFK 220851Z 13020G28KT 6SM -RA BR BKN008 OVC017 23/23 A2981 RMK AO2 PK
                 WND 12029/0827 SLP094 P0001 60018 T02280228 55005 =
2018-07-22 03:51 METAR KJFK 220751Z 11020G35KT 6SM -RA BR BKN008 OVC017 23/23 A2980 RMK AO2 PK
                 WND 10038/0704 SLP091 P0004 T02280228 =
2018-07-22 02:51 METAR KJFK 220651Z 10026G36KT 4SM -RA BR BKN007 OVC022 22/22 A2979 RMK AO2 PK
                 WND 10039/0636 SLP088 P0013 T02220222 =
2018-07-22 01:51 METAR KJFK 220551Z 09020G32KT 3SM -RA BR BKN007 OVC047 22/22 A2982 RMK AO2 PK
                 WND 10032/0541 SLP099 P0004 60060 T02220222 10222 20194 58030 =
2018-07-22 00:51 METAR KJFK 220451Z 09019G24KT 3SM -RA BR BKN006 BKN013 OVC032 22/22 A2987 RMK
                 AO2 PK WND 09029/0425 SLP113 P0008 T02170217 402500189 =
2018-07-21 23:51 METAR KJFK 220351Z 09021G29KT 3SM -RA BR BKN006 OVC013 22/22 A2989 RMK AO2 PK
                 WND 07031/0323 SLP121 P0006 T02170217 =
2018-07-21 22:51 METAR KJFK 220251Z 08017G25KT 5SM RA BR BKN006 OVC021 21/21 A2991 RMK AO2 SLP129
                 P0026 60042 T02110211 58021 =
2018-07-21 21:51 METAR KJFK 220151Z 07014G21KT 6SM -RA BR OVC009 20/20 A2994 RMK AO2 SLP138 P0011
                 T02000200 =
2018-07-21 20:51 METAR KJFK 220051Z 06011KT 5SM RA BR BKN012 OVC023 19/19 A2996 RMK AO2 SLP144
                 P0005 T01940189 =
2018-07-21 19:51 METAR KJFK 212351Z 07014KT 6SM -RA BKN017 OVC024 20/17 A2997 RMK AO2 SLP150
                 P0001 60001 T02000167 10244 20200 56015 =
2018-07-21 19:15 METAR KJFK 212315Z 07016G22KT 10SM -RA BKN026 OVC034 22/14 A2998 RMK AO2 P0000
                 T02170144 =
2018-07-21 18:51 METAR KJFK 212251Z 08013KT 10SM -RA FEW030 BKN040 OVC055 22/13 A2999 RMK AO2
                 RAB50 SLP155 P0000 T02170133 =
2018-07-21 17:51 METAR KJFK 212151Z 08016KT 10SM FEW035 BKN047 OVC060 22/13 A3000 RMK AO2 SLP158
                 T02220133 =
2018-07-21 16:51 METAR KJFK 212051Z 09013KT 10SM FEW035 BKN075 BKN150 OVC250 23/15 A3002 RMK AO2
                 SLP165 T02280150 56014 =
2018-07-21 15:51 METAR KJFK 211951Z 09016KT 10SM SCT039 BKN150 OVC250 23/16 A3003 RMK AO2 SLP168
                 T02280156 =
2018-07-21 14:51 METAR KJFK 211851Z 10018KT 10SM SCT035 SCT150 OVC250 23/16 A3005 RMK AO2 PK WND
                 09028/1836 SLP175 T02330161 =
2018-07-21 13:51 METAR KJFK 211751Z 11018KT 10SM SCT035 SCT150 OVC250 24/16 A3006 RMK AO2 SLP179
                 T02440156 10250 20222 58013 =
2018-07-21 12:51 METAR KJFK 211651Z 09017G23KT 10SM SCT032 SCT150 BKN250 24/16 A3008 RMK AO2
                 SLP186 T02440156 =
2018-07-21 11:51 METAR KJFK 211551Z 11016KT 10SM BKN033 BKN150 BKN250 24/16 A3009 RMK AO2 SLP189
                 T02440156 =
2018-07-21 10:51 METAR KJFK 211451Z 09015KT 10SM SCT035 SCT150 BKN250 24/16 A3010 RMK AO2 SLP192
                 T02390156 50002 =

Support USWX by starting your Amazon purchase here.